createdAt,value
2022-11-06T00:00:48.493Z,3.47
2022-11-06T00:06:28.397Z,3.72
2022-11-06T00:11:54.414Z,3.78
2022-11-06T00:17:21.584Z,3.70
2022-11-06T00:22:48.401Z,3.88
2022-11-06T00:28:14.831Z,4.03
2022-11-06T00:33:41.397Z,4.55
2022-11-06T00:39:07.716Z,4.65
2022-11-06T00:44:31.454Z,4.80
2022-11-06T00:49:59.379Z,4.40
2022-11-06T00:55:24.411Z,4.60
2022-11-06T01:00:55.394Z,4.18
2022-11-06T01:06:25.405Z,4.50
2022-11-06T01:17:37.775Z,4.53
2022-11-06T01:23:04.437Z,4.65
2022-11-06T01:28:29.410Z,4.90
2022-11-06T01:33:54.410Z,4.70
2022-11-06T01:39:24.423Z,4.80
2022-11-06T01:45:19.678Z,4.50
2022-11-06T01:50:44.471Z,4.90
2022-11-06T01:56:14.420Z,5.53
2022-11-06T02:01:39.495Z,6.07
2022-11-06T02:07:04.404Z,5.90
2022-11-06T02:12:45.452Z,7.20
2022-11-06T02:18:32.451Z,7.10
2022-11-06T02:24:12.445Z,6.10
2022-11-06T02:29:47.463Z,6.97
2022-11-06T02:35:20.479Z,7.10
2022-11-06T02:40:48.431Z,6.63
2022-11-06T02:46:21.538Z,6.88
2022-11-06T02:51:47.428Z,7.63
2022-11-06T02:57:17.445Z,7.28
2022-11-06T03:02:55.702Z,7.72
2022-11-06T03:08:27.472Z,7.38
2022-11-06T03:14:02.463Z,7.30
2022-11-06T03:19:37.437Z,7.07
2022-11-06T03:25:05.449Z,6.90
2022-11-06T03:30:30.449Z,6.13
2022-11-06T03:36:01.448Z,6.68
2022-11-06T03:41:33.467Z,6.00
2022-11-06T03:47:03.516Z,6.00
2022-11-06T03:52:40.269Z,6.05
2022-11-06T03:58:09.478Z,5.85
2022-11-06T04:03:46.464Z,6.20
2022-11-06T04:09:29.509Z,6.18
2022-11-06T04:14:58.496Z,5.80
2022-11-06T04:20:40.483Z,5.72
2022-11-06T04:26:34.708Z,5.82
2022-11-06T04:32:08.533Z,5.47
2022-11-06T04:37:38.496Z,6.18
2022-11-06T04:43:11.481Z,6.18
2022-11-06T04:48:38.640Z,5.80
2022-11-06T04:54:04.509Z,5.38
2022-11-06T04:59:33.520Z,5.65
2022-11-06T05:04:58.525Z,5.78
2022-11-06T05:10:23.492Z,6.00
2022-11-06T05:15:51.505Z,5.68
2022-11-06T05:21:29.699Z,5.85
2022-11-06T05:26:59.054Z,6.20
2022-11-06T05:32:26.660Z,6.50
2022-11-06T05:37:51.507Z,6.70
2022-11-06T05:43:15.785Z,7.32
2022-11-06T05:48:43.496Z,7.32
2022-11-06T05:54:07.525Z,6.72
2022-11-06T05:59:32.521Z,7.10
2022-11-06T06:04:59.586Z,7.25
2022-11-06T06:10:24.536Z,7.53
2022-11-06T06:15:48.551Z,7.43
2022-11-06T06:21:16.541Z,7.80
2022-11-06T06:26:41.690Z,7.53
2022-11-06T06:32:06.552Z,7.22
2022-11-06T06:37:33.545Z,7.47
2022-11-06T06:42:58.672Z,7.10
2022-11-06T06:48:23.583Z,6.95
2022-11-06T06:53:51.564Z,6.40
2022-11-06T06:59:15.572Z,6.50
2022-11-06T07:04:46.536Z,6.68
2022-11-06T07:10:15.598Z,6.20
2022-11-06T07:15:39.629Z,6.28
2022-11-06T07:21:04.757Z,5.90
2022-11-06T07:26:31.539Z,5.50
2022-11-06T07:31:56.551Z,5.18
2022-11-06T07:37:23.696Z,5.28
2022-11-06T07:42:51.556Z,5.40
2022-11-06T07:48:17.624Z,4.70
2022-11-06T07:53:43.588Z,4.63
2022-11-06T07:59:11.564Z,4.30
2022-11-06T08:04:42.586Z,4.05
2022-11-06T08:10:07.600Z,4.20
2022-11-06T08:15:34.924Z,3.78
2022-11-06T08:21:02.588Z,3.50
2022-11-06T08:26:28.633Z,2.97
2022-11-06T08:31:55.569Z,3.00
2022-11-06T08:37:19.581Z,2.83
2022-11-06T08:42:44.662Z,2.75
2022-11-06T08:48:15.845Z,2.03
2022-11-06T08:53:40.709Z,2.07
2022-11-06T08:59:04.625Z,2.10
2022-11-06T09:04:41.371Z,1.70
2022-11-06T09:10:06.614Z,1.85
2022-11-06T09:15:31.961Z,1.75
2022-11-06T09:20:59.607Z,1.70
2022-11-06T09:26:24.606Z,1.58
2022-11-06T09:31:50.642Z,1.30
2022-11-06T09:37:17.603Z,1.40
2022-11-06T09:42:52.837Z,1.40
2022-11-06T09:48:21.635Z,1.20
2022-11-06T09:53:54.650Z,1.20
2022-11-06T09:59:24.656Z,1.20
2022-11-06T10:05:01.640Z,1.00
2022-11-06T10:10:34.704Z,0.98
2022-11-06T10:16:06.654Z,1.20
2022-11-06T10:21:35.021Z,1.00
2022-11-06T10:27:09.060Z,0.90
2022-11-06T10:32:54.657Z,1.00
2022-11-06T10:38:22.656Z,1.00
2022-11-06T10:43:56.676Z,0.90
2022-11-06T10:49:30.657Z,0.77
2022-11-06T10:55:13.691Z,0.90
2022-11-06T11:00:40.762Z,0.90
2022-11-06T11:06:05.667Z,0.70
2022-11-06T11:11:36.685Z,0.82
2022-11-06T11:17:05.697Z,0.70
2022-11-06T11:22:37.045Z,0.70
2022-11-06T11:28:04.793Z,1.00
2022-11-06T11:33:36.681Z,0.55
2022-11-06T11:39:01.691Z,0.60
2022-11-06T11:44:31.708Z,0.70
2022-11-06T11:49:59.699Z,0.63
2022-11-06T11:55:33.717Z,0.70
2022-11-06T12:01:04.764Z,0.77
2022-11-06T12:06:38.674Z,0.80
2022-11-06T12:12:05.700Z,0.75
2022-11-06T12:17:37.711Z,0.90
2022-11-06T12:23:09.724Z,0.70
2022-11-06T12:28:38.726Z,0.90
2022-11-06T12:34:07.198Z,0.80
2022-11-06T12:39:41.717Z,0.77
2022-11-06T12:45:10.723Z,0.60
2022-11-06T12:50:42.817Z,0.80
2022-11-06T12:56:21.743Z,0.80
2022-11-06T13:01:59.826Z,1.00
2022-11-06T13:07:45.733Z,0.80
2022-11-06T13:13:27.757Z,0.90
2022-11-06T13:18:55.758Z,0.75
2022-11-06T13:24:23.824Z,0.82
2022-11-06T13:29:51.726Z,0.88
2022-11-06T13:35:24.722Z,0.90
2022-11-06T13:40:52.761Z,0.70
2022-11-06T13:46:29.769Z,0.68
2022-11-06T13:52:03.765Z,0.55
2022-11-06T13:57:59.887Z,0.60
2022-11-06T14:04:04.813Z,0.80
2022-11-06T14:09:31.751Z,0.60
2022-11-06T14:14:56.744Z,0.80
2022-11-06T14:20:42.770Z,0.80
2022-11-06T14:26:17.769Z,0.60
2022-11-06T14:32:12.770Z,0.98
2022-11-06T14:38:03.778Z,0.70
2022-11-06T14:43:33.795Z,0.70
2022-11-06T14:49:02.786Z,0.63
2022-11-06T14:54:32.785Z,0.70
2022-11-06T14:59:57.792Z,0.60
2022-11-06T15:05:32.806Z,0.60
2022-11-06T15:11:03.834Z,0.60
2022-11-06T15:16:28.811Z,0.70
2022-11-06T15:21:57.778Z,0.60
2022-11-06T15:27:31.780Z,0.68
2022-11-06T15:32:59.809Z,0.70
2022-11-06T15:38:32.809Z,0.75
2022-11-06T15:44:02.801Z,1.10
2022-11-06T15:49:35.814Z,0.90
2022-11-06T15:55:06.451Z,1.30
2022-11-06T16:00:37.797Z,1.70
2022-11-06T16:06:10.825Z,2.00
2022-11-06T16:11:36.821Z,2.33
2022-11-06T16:17:05.819Z,2.70
2022-11-06T16:22:37.853Z,2.60
2022-11-06T16:28:01.848Z,2.58
2022-11-06T16:33:32.803Z,2.70
2022-11-06T16:38:58.917Z,2.90
2022-11-06T16:44:34.826Z,3.05
2022-11-06T16:50:12.893Z,2.70
2022-11-06T16:55:39.853Z,2.83
2022-11-06T17:01:15.770Z,2.90
2022-11-06T17:06:52.869Z,3.20
2022-11-06T17:12:19.849Z,3.40
2022-11-06T17:17:45.871Z,2.90
2022-11-06T17:23:16.270Z,3.00
2022-11-06T17:28:39.851Z,2.38
2022-11-06T17:34:04.860Z,2.80
2022-11-06T17:39:32.898Z,2.65
2022-11-06T17:44:57.873Z,2.85
2022-11-06T17:50:23.894Z,3.03
2022-11-06T17:55:51.856Z,3.20
2022-11-06T18:01:23.990Z,3.15
2022-11-06T18:06:54.889Z,3.33
2022-11-06T18:12:23.896Z,3.20
2022-11-06T18:17:48.878Z,3.00
2022-11-06T18:23:13.861Z,2.88
2022-11-06T18:28:41.132Z,3.00
2022-11-06T18:34:06.904Z,2.88
2022-11-06T18:39:31.890Z,2.75
2022-11-06T18:44:59.921Z,2.70
2022-11-06T18:50:25.899Z,2.60
2022-11-06T18:55:54.905Z,2.70
2022-11-06T19:01:24.956Z,2.65
2022-11-06T19:06:50.068Z,2.30
2022-11-06T19:12:13.919Z,2.60
2022-11-06T19:17:41.934Z,2.47
2022-11-06T19:23:06.886Z,2.60
2022-11-06T19:28:35.737Z,2.63
2022-11-06T19:34:04.271Z,2.88
2022-11-06T19:39:28.950Z,2.75
2022-11-06T19:44:52.919Z,2.90
2022-11-06T19:50:39.098Z,3.10
2022-11-06T19:56:07.946Z,3.00
2022-11-06T20:01:33.066Z,2.88
2022-11-06T20:07:08.038Z,3.35
2022-11-06T20:12:32.942Z,3.20
2022-11-06T20:17:56.955Z,2.80
2022-11-06T20:23:23.950Z,2.78
2022-11-06T20:28:48.964Z,2.90
2022-11-06T20:34:13.943Z,2.63
2022-11-06T20:39:40.936Z,2.28
2022-11-06T20:45:12.065Z,2.35
2022-11-06T20:50:37.013Z,2.07
2022-11-06T20:56:04.969Z,2.15
2022-11-06T21:01:31.087Z,2.38
2022-11-06T21:07:02.933Z,2.20
2022-11-06T21:12:31.963Z,2.10
2022-11-06T21:17:56.939Z,2.03
2022-11-06T21:23:22.009Z,2.60
2022-11-06T21:28:50.074Z,2.30
2022-11-06T21:34:15.017Z,2.58
2022-11-06T21:39:39.003Z,2.47
2022-11-06T21:45:09.788Z,2.95
2022-11-06T21:50:37.333Z,3.05
2022-11-06T21:56:11.039Z,2.95
2022-11-06T22:01:39.153Z,3.33
2022-11-06T22:07:04.330Z,3.13
2022-11-06T22:12:31.108Z,3.10
2022-11-06T22:17:59.254Z,3.10
2022-11-06T22:23:23.032Z,3.13
2022-11-06T22:28:47.999Z,3.28
2022-11-06T22:34:16.140Z,2.97
2022-11-06T22:39:41.018Z,3.20
2022-11-06T22:45:05.329Z,2.92
2022-11-06T22:50:33.017Z,3.20
2022-11-06T22:55:57.062Z,3.00
2022-11-06T23:01:22.067Z,3.08
2022-11-06T23:06:50.031Z,2.95
2022-11-06T23:12:16.279Z,3.60
2022-11-06T23:17:41.256Z,3.85
2022-11-06T23:23:09.025Z,3.30
2022-11-06T23:28:34.069Z,3.47
2022-11-06T23:33:59.012Z,3.40
2022-11-06T23:39:26.059Z,3.15
2022-11-06T23:45:03.066Z,3.35
2022-11-06T23:50:27.515Z,3.40
2022-11-06T23:55:55.024Z,3.13
